Time;durP1;ratioP1;P1;durP2;ratioP2;P2;SDS_P1;SDS_P2;PMS_P1;PMS_P2;Temp;Humidity;BMP_temperature;BMP_pressure;BME280_temperature;BME280_humidity;BME280_pressure;Samples;Min_cycle;Max_cycle;Signal;HPM_P1;HPM_P2
2021/12/11 00:00:04;;;;;;;39.90;24.80;;;;;;;;;;5039176;28;20113;-60
2021/12/11 00:02:32;;;;;;;38.13;23.50;;;;;;;;;;5039383;28;20071;-61
2021/12/11 00:04:58;;;;;;;28.20;19.20;;;;;;;;;;5040075;28;20044;-60
2021/12/11 00:07:26;;;;;;;20.98;16.40;;;;;;;;;;5040811;28;20088;-61
2021/12/11 00:10:09;;;;;;;21.08;17.33;;;;;;;;;;5041208;28;20033;-60
2021/12/11 00:12:36;;;;;;;28.92;21.08;;;;;;;;;;5038097;28;20060;-60
2021/12/11 00:15:10;;;;;;;31.70;19.77;;;;;;;;;;5039936;28;20029;-61
2021/12/11 00:17:36;;;;;;;29.33;20.50;;;;;;;;;;5040482;28;20105;-61
2021/12/11 00:20:04;;;;;;;38.80;22.95;;;;;;;;;;5039290;28;20061;-61
2021/12/11 00:22:30;;;;;;;40.95;22.40;;;;;;;;;;5039425;28;20029;-61
2021/12/11 00:25:00;;;;;;;30.95;17.63;;;;;;;;;;5040779;28;20037;-61
2021/12/11 00:27:27;;;;;;;207.85;41.30;;;;;;;;;;5041851;28;20034;-61
2021/12/11 00:29:52;;;;;;;22.05;17.80;;;;;;;;;;5037291;28;20120;-61
2021/12/11 00:32:33;;;;;;;45.17;23.52;;;;;;;;;;5038839;28;20099;-61
2021/12/11 00:35:04;;;;;;;48.17;15.13;;;;;;;;;;5039747;28;20030;-61
2021/12/11 00:37:30;;;;;;;83.45;22.52;;;;;;;;;;5039749;28;20021;-61
2021/12/11 00:40:06;;;;;;;251.83;43.43;;;;;;;;;;5038659;28;20033;-61
2021/12/11 00:42:34;;;;;;;24.40;18.27;;;;;;;;;;5038913;28;20454;-61
2021/12/11 00:45:01;;;;;;;29.63;18.08;;;;;;;;;;5039156;28;20059;-61
2021/12/11 00:47:29;;;;;;;26.80;20.88;;;;;;;;;;5041760;28;20092;-61
2021/12/11 00:49:59;;;;;;;22.85;17.38;;;;;;;;;;5038586;28;20033;-61
2021/12/11 00:52:34;;;;;;;22.02;15.75;;;;;;;;;;5038212;28;20063;-61
2021/12/11 00:55:00;;;;;;;22.27;17.23;;;;;;;;;;5037868;28;20055;-61
2021/12/11 00:57:25;;;;;;;28.48;21.70;;;;;;;;;;5040909;28;20049;-62
2021/12/11 01:00:01;;;;;;;34.97;23.80;;;;;;;;;;5039989;28;20639;-61
2021/12/11 01:02:26;;;;;;;40.22;28.63;;;;;;;;;;5038456;28;20049;-62
2021/12/11 01:04:51;;;;;;;35.10;23.85;;;;;;;;;;5040375;28;20067;-61
2021/12/11 01:07:20;;;;;;;32.08;23.60;;;;;;;;;;5037200;28;20056;-61
2021/12/11 01:09:48;;;;;;;43.35;29.85;;;;;;;;;;5037630;28;21066;-61
2021/12/11 01:12:42;;;;;;;44.08;27.25;;;;;;;;;;5040956;28;20108;-61
2021/12/11 01:15:24;;;;;;;36.55;23.23;;;;;;;;;;5039623;28;20029;-61
2021/12/11 01:18:11;;;;;;;34.28;22.88;;;;;;;;;;5042177;28;20039;-60
2021/12/11 01:20:49;;;;;;;28.77;22.50;;;;;;;;;;5038218;28;20877;-60
2021/12/11 01:23:28;;;;;;;35.03;18.08;;;;;;;;;;5039192;28;20017;-60
2021/12/11 01:25:54;;;;;;;35.55;26.60;;;;;;;;;;5037943;28;20029;-60
2021/12/11 01:28:19;;;;;;;44.15;27.73;;;;;;;;;;5038928;28;20427;-60
2021/12/11 01:30:44;;;;;;;49.70;29.83;;;;;;;;;;5039287;28;20394;-61
2021/12/11 01:33:11;;;;;;;45.58;28.08;;;;;;;;;;5039487;28;20416;-60
2021/12/11 01:35:36;;;;;;;42.15;28.85;;;;;;;;;;5039686;28;20518;-61
2021/12/11 01:38:06;;;;;;;41.80;28.77;;;;;;;;;;5040085;28;20056;-61
2021/12/11 01:40:32;;;;;;;35.42;26.17;;;;;;;;;;5037568;28;20489;-61
2021/12/11 01:43:02;;;;;;;43.78;27.13;;;;;;;;;;5040867;28;20100;-61
2021/12/11 01:45:28;;;;;;;41.47;27.10;;;;;;;;;;5039102;28;20112;-61
2021/12/11 01:47:53;;;;;;;39.38;26.55;;;;;;;;;;5042011;28;20074;-60
2021/12/11 01:50:27;;;;;;;43.47;31.75;;;;;;;;;;5048044;28;20060;-59
2021/12/11 01:53:00;;;;;;;45.30;31.25;;;;;;;;;;5049728;28;20111;-60
2021/12/11 01:55:29;;;;;;;43.28;30.13;;;;;;;;;;5049245;28;20381;-61
2021/12/11 01:57:55;;;;;;;51.75;30.25;;;;;;;;;;5050180;28;20108;-61
2021/12/11 02:00:33;;;;;;;53.88;34.58;;;;;;;;;;5047951;28;20119;-61
2021/12/11 02:03:00;;;;;;;50.55;31.48;;;;;;;;;;5043806;28;20022;-61
2021/12/11 02:05:27;;;;;;;49.67;29.73;;;;;;;;;;5028317;28;20042;-61
2021/12/11 02:07:55;;;;;;;50.05;30.05;;;;;;;;;;5030696;28;20029;-61
2021/12/11 02:10:23;;;;;;;42.20;27.37;;;;;;;;;;5046575;28;20068;-61
2021/12/11 02:12:50;;;;;;;46.27;30.60;;;;;;;;;;5050006;28;20017;-61
2021/12/11 02:15:20;;;;;;;41.08;29.27;;;;;;;;;;5051555;28;20100;-61
2021/12/11 02:17:56;;;;;;;44.70;27.88;;;;;;;;;;5042924;28;20025;-61
2021/12/11 02:20:34;;;;;;;46.67;29.88;;;;;;;;;;5047684;28;20063;-61
2021/12/11 02:22:59;;;;;;;36.42;26.65;;;;;;;;;;5034381;28;20112;-61
2021/12/11 02:25:27;;;;;;;42.67;27.17;;;;;;;;;;5032605;28;20539;-61
2021/12/11 02:27:58;;;;;;;39.05;27.25;;;;;;;;;;5034054;28;21117;-61
2021/12/11 02:30:30;;;;;;;44.28;28.95;;;;;;;;;;5049924;28;20037;-61
2021/12/11 02:33:27;;;;;;;45.28;27.38;;;;;;;;;;5053712;28;20048;-61
2021/12/11 02:35:55;;;;;;;37.55;27.10;;;;;;;;;;5018465;28;20521;-61
2021/12/11 02:38:23;;;;;;;38.17;26.52;;;;;;;;;;5049183;28;20025;-60
2021/12/11 02:40:54;;;;;;;58.83;29.88;;;;;;;;;;5041214;28;20060;-59
2021/12/11 02:43:32;;;;;;;51.17;30.17;;;;;;;;;;5053098;28;20029;-60
2021/12/11 02:46:09;;;;;;;41.33;27.92;;;;;;;;;;5052357;28;20450;-59
2021/12/11 02:48:40;;;;;;;45.65;31.25;;;;;;;;;;5052975;28;20037;-59
2021/12/11 02:51:12;;;;;;;49.17;29.63;;;;;;;;;;5051568;28;20095;-60
2021/12/11 02:53:39;;;;;;;41.95;29.27;;;;;;;;;;5053379;28;20400;-60
2021/12/11 02:56:16;;;;;;;45.22;30.42;;;;;;;;;;5052116;28;20108;-60
2021/12/11 02:58:46;;;;;;;44.60;32.65;;;;;;;;;;5049582;28;20380;-60
2021/12/11 03:01:21;;;;;;;49.80;31.98;;;;;;;;;;5032061;28;20029;-61
2021/12/11 03:03:52;;;;;;;49.25;32.70;;;;;;;;;;5033709;28;20037;-60
2021/12/11 03:06:21;;;;;;;46.63;31.23;;;;;;;;;;5049625;28;20037;-60
2021/12/11 03:08:47;;;;;;;53.00;28.98;;;;;;;;;;5036758;28;20041;-60
2021/12/11 03:11:15;;;;;;;39.75;27.50;;;;;;;;;;5032011;28;20041;-60
2021/12/11 03:13:40;;;;;;;36.45;25.50;;;;;;;;;;5032826;28;20422;-59
2021/12/11 03:16:08;;;;;;;47.80;30.88;;;;;;;;;;5031973;28;20120;-60
2021/12/11 03:18:34;;;;;;;45.25;30.60;;;;;;;;;;5050335;28;20111;-60
2021/12/11 03:20:59;;;;;;;45.63;30.33;;;;;;;;;;5039547;28;20144;-60
2021/12/11 03:23:25;;;;;;;48.63;31.52;;;;;;;;;;5052679;28;20020;-60
2021/12/11 03:25:50;;;;;;;45.58;30.15;;;;;;;;;;5051169;28;20026;-60
2021/12/11 03:28:16;;;;;;;38.58;26.98;;;;;;;;;;5052158;28;20055;-60
2021/12/11 03:30:43;;;;;;;39.30;26.08;;;;;;;;;;5032242;28;20516;-60
2021/12/11 03:33:11;;;;;;;41.30;27.40;;;;;;;;;;5033035;28;20021;-60
2021/12/11 03:35:37;;;;;;;38.53;26.20;;;;;;;;;;5030969;28;20095;-60
2021/12/11 03:38:02;;;;;;;43.60;27.13;;;;;;;;;;5032542;28;20087;-60
2021/12/11 03:40:27;;;;;;;38.30;26.48;;;;;;;;;;5031419;28;20041;-60
2021/12/11 03:42:57;;;;;;;39.42;26.17;;;;;;;;;;5032369;28;20018;-61
2021/12/11 03:45:25;;;;;;;37.78;27.42;;;;;;;;;;5031230;28;20045;-61
2021/12/11 03:47:55;;;;;;;32.05;25.95;;;;;;;;;;5032614;28;20040;-61
2021/12/11 03:50:21;;;;;;;38.40;25.75;;;;;;;;;;5046034;28;20041;-61
2021/12/11 03:52:48;;;;;;;40.15;25.05;;;;;;;;;;5052400;28;20037;-61
2021/12/11 03:55:17;;;;;;;45.95;26.50;;;;;;;;;;5050643;28;20036;-61
2021/12/11 03:57:44;;;;;;;45.50;27.05;;;;;;;;;;5051294;28;20025;-61
2021/12/11 04:00:12;;;;;;;37.85;25.83;;;;;;;;;;5037004;28;20120;-61
2021/12/11 04:02:37;;;;;;;46.75;31.23;;;;;;;;;;5051485;28;20035;-61
2021/12/11 04:05:05;;;;;;;51.08;29.25;;;;;;;;;;5050635;28;20045;-60
2021/12/11 04:07:33;;;;;;;41.72;28.05;;;;;;;;;;5051229;28;20029;-61
2021/12/11 04:09:58;;;;;;;40.63;25.83;;;;;;;;;;5038338;28;20033;-60
2021/12/11 04:12:25;;;;;;;38.90;25.25;;;;;;;;;;5031552;28;20024;-60
2021/12/11 04:14:51;;;;;;;39.83;25.52;;;;;;;;;;5030837;28;20040;-60
2021/12/11 04:17:22;;;;;;;50.80;26.23;;;;;;;;;;5043538;28;20113;-61
2021/12/11 04:19:48;;;;;;;44.67;27.58;;;;;;;;;;5039741;28;20061;-61
2021/12/11 04:22:13;;;;;;;34.30;25.77;;;;;;;;;;5052029;28;20503;-60
2021/12/11 04:24:40;;;;;;;48.42;28.92;;;;;;;;;;5049339;28;20037;-60
2021/12/11 04:27:07;;;;;;;43.38;28.58;;;;;;;;;;5040492;28;20033;-60
2021/12/11 04:29:33;;;;;;;37.95;27.08;;;;;;;;;;5038356;28;20037;-60
2021/12/11 04:32:01;;;;;;;37.55;25.27;;;;;;;;;;5051956;28;20017;-60
2021/12/11 04:34:26;;;;;;;32.28;21.23;;;;;;;;;;5040616;28;20037;-60
2021/12/11 04:36:56;;;;;;;39.03;27.25;;;;;;;;;;5031143;28;20028;-60
2021/12/11 04:39:23;;;;;;;49.90;27.63;;;;;;;;;;5030918;28;20200;-60
2021/12/11 04:41:56;;;;;;;39.38;24.60;;;;;;;;;;5031589;28;20477;-60
2021/12/11 04:44:38;;;;;;;33.67;23.67;;;;;;;;;;5038034;28;20048;-60
2021/12/11 04:47:05;;;;;;;45.42;26.25;;;;;;;;;;5051764;28;20032;-60
2021/12/11 04:49:39;;;;;;;41.22;26.90;;;;;;;;;;5042068;28;20065;-61
2021/12/11 04:52:12;;;;;;;44.25;24.90;;;;;;;;;;5031507;28;20025;-59
2021/12/11 04:54:50;;;;;;;40.28;26.58;;;;;;;;;;5030134;28;20033;-59
2021/12/11 05:11:01;;;;;;;38.40;26.93;;;;;;;;;;5035786;28;20060;-61
2021/12/11 05:13:27;;;;;;;41.70;24.90;;;;;;;;;;5043186;28;20903;-57
2021/12/11 05:15:53;;;;;;;37.80;26.55;;;;;;;;;;5040019;28;20057;-58
2021/12/11 05:18:20;;;;;;;35.75;25.67;;;;;;;;;;5030861;28;20021;-58
2021/12/11 05:20:49;;;;;;;41.17;28.38;;;;;;;;;;5039435;28;20044;-58
2021/12/11 05:23:16;;;;;;;44.20;30.38;;;;;;;;;;5046517;28;20502;-58
2021/12/11 05:25:41;;;;;;;43.13;29.05;;;;;;;;;;5037839;28;20033;-58
2021/12/11 05:28:06;;;;;;;48.30;30.75;;;;;;;;;;5051132;28;20376;-58
2021/12/11 05:30:34;;;;;;;43.42;26.80;;;;;;;;;;5029721;28;20052;-58
2021/12/11 05:32:59;;;;;;;40.05;26.42;;;;;;;;;;5031460;28;20507;-58
2021/12/11 05:35:25;;;;;;;35.35;27.40;;;;;;;;;;5069314;28;20123;-58
2021/12/11 05:37:50;;;;;;;44.10;29.90;;;;;;;;;;5067802;28;20024;-58
2021/12/11 05:40:18;;;;;;;52.88;30.02;;;;;;;;;;5047911;28;20132;-58
2021/12/11 05:42:43;;;;;;;45.13;29.15;;;;;;;;;;5050602;28;20116;-58
2021/12/11 05:45:08;;;;;;;44.70;28.98;;;;;;;;;;5045528;28;20104;-58
2021/12/11 05:47:34;;;;;;;40.87;26.47;;;;;;;;;;5047451;28;20055;-58
2021/12/11 05:49:59;;;;;;;53.25;30.67;;;;;;;;;;5038988;28;20462;-58
2021/12/11 05:52:25;;;;;;;43.85;28.40;;;;;;;;;;5044422;28;20080;-58
2021/12/11 05:54:51;;;;;;;43.08;27.25;;;;;;;;;;5034460;28;20024;-58
2021/12/11 05:57:17;;;;;;;38.90;26.25;;;;;;;;;;5049677;28;20067;-57
2021/12/11 05:59:44;;;;;;;37.95;25.70;;;;;;;;;;5042547;28;20394;-57
2021/12/11 06:02:09;;;;;;;43.08;27.10;;;;;;;;;;5048148;28;20041;-57
2021/12/11 06:04:36;;;;;;;42.30;27.70;;;;;;;;;;5054075;28;20021;-57
2021/12/11 06:07:03;;;;;;;41.15;27.00;;;;;;;;;;5039899;28;20867;-57
2021/12/11 06:09:29;;;;;;;41.63;27.13;;;;;;;;;;5041897;28;20014;-58
2021/12/11 06:11:56;;;;;;;39.75;28.48;;;;;;;;;;5042354;28;20022;-57
2021/12/11 06:14:21;;;;;;;45.53;29.45;;;;;;;;;;5041633;28;20446;-57
2021/12/11 06:16:48;;;;;;;43.25;29.20;;;;;;;;;;5041324;28;20120;-57
2021/12/11 06:19:14;;;;;;;41.72;28.55;;;;;;;;;;5040390;28;20029;-57
2021/12/11 06:21:39;;;;;;;47.13;28.05;;;;;;;;;;5037723;28;20040;-57
2021/12/11 06:24:05;;;;;;;45.35;29.27;;;;;;;;;;5044440;28;20025;-57
2021/12/11 06:26:30;;;;;;;49.88;27.15;;;;;;;;;;5040416;28;20032;-57
2021/12/11 06:28:55;;;;;;;47.53;28.52;;;;;;;;;;5040489;28;20031;-57
2021/12/11 06:31:21;;;;;;;50.42;28.80;;;;;;;;;;5037851;28;20079;-57
2021/12/11 06:33:47;;;;;;;35.00;25.60;;;;;;;;;;5043630;28;20505;-57
2021/12/11 06:36:14;;;;;;;39.47;27.92;;;;;;;;;;5042232;28;20129;-57
2021/12/11 06:38:40;;;;;;;48.45;29.13;;;;;;;;;;5042103;28;20416;-57
2021/12/11 06:41:07;;;;;;;43.50;27.90;;;;;;;;;;5040056;28;20100;-57
2021/12/11 06:43:32;;;;;;;52.25;31.38;;;;;;;;;;5042480;28;20017;-57
2021/12/11 06:45:57;;;;;;;49.57;32.37;;;;;;;;;;5041070;28;20040;-57
2021/12/11 06:48:23;;;;;;;42.08;30.55;;;;;;;;;;5042663;28;21009;-57
2021/12/11 06:50:48;;;;;;;43.45;29.77;;;;;;;;;;5038897;28;20042;-57
2021/12/11 06:53:17;;;;;;;43.88;30.13;;;;;;;;;;5041802;28;20120;-57
2021/12/11 06:55:42;;;;;;;;;;;;;;;;;;5041860;28;20033;-57
2021/12/11 06:58:08;;;;;;;45.15;28.05;;;;;;;;;;5043420;28;19908;-57
2021/12/11 07:00:33;;;;;;;44.72;25.98;;;;;;;;;;5039039;28;20049;-57
2021/12/11 07:02:58;;;;;;;42.13;25.85;;;;;;;;;;5033045;28;20079;-57
2021/12/11 07:05:23;;;;;;;43.83;28.00;;;;;;;;;;5034118;28;20090;-57
2021/12/11 07:07:49;;;;;;;40.45;28.10;;;;;;;;;;5050660;28;20040;-57
2021/12/11 07:10:15;;;;;;;45.60;27.38;;;;;;;;;;5035323;28;20595;-57
2021/12/11 07:12:40;;;;;;;40.17;27.52;;;;;;;;;;5037268;28;20025;-57
2021/12/11 07:15:07;;;;;;;42.67;27.90;;;;;;;;;;5043387;28;20041;-57
2021/12/11 07:17:33;;;;;;;52.42;27.35;;;;;;;;;;5049431;28;20033;-57
2021/12/11 07:19:58;;;;;;;43.78;27.80;;;;;;;;;;5049844;28;20036;-57
2021/12/11 07:22:24;;;;;;;40.40;27.93;;;;;;;;;;5051572;28;20017;-57
2021/12/11 07:24:55;;;;;;;37.78;30.27;;;;;;;;;;5047852;28;21167;-57
2021/12/11 07:27:20;;;;;;;42.58;28.15;;;;;;;;;;5038121;28;20063;-57
2021/12/11 07:29:45;;;;;;;45.08;27.10;;;;;;;;;;5047186;28;20433;-57
2021/12/11 07:32:11;;;;;;;42.30;29.75;;;;;;;;;;5051150;28;20025;-57
2021/12/11 07:34:37;;;;;;;40.47;28.48;;;;;;;;;;5044034;28;20493;-57
2021/12/11 07:37:03;;;;;;;40.58;26.50;;;;;;;;;;5032803;28;20052;-57
2021/12/11 07:39:28;;;;;;;44.03;29.23;;;;;;;;;;5038495;28;20415;-57
2021/12/11 07:41:54;;;;;;;43.78;29.27;;;;;;;;;;5052327;28;20017;-57
2021/12/11 07:44:20;;;;;;;41.38;28.00;;;;;;;;;;5050107;28;20546;-57
2021/12/11 07:46:45;;;;;;;48.65;29.02;;;;;;;;;;5052148;28;20041;-57
2021/12/11 07:49:10;;;;;;;47.22;29.08;;;;;;;;;;5051118;28;20071;-57
2021/12/11 07:51:36;;;;;;;34.08;25.15;;;;;;;;;;5052017;28;20507;-57
2021/12/11 07:54:02;;;;;;;35.70;28.50;;;;;;;;;;5037787;28;20252;-57
2021/12/11 07:56:29;;;;;;;37.22;26.13;;;;;;;;;;5050597;28;20049;-57
2021/12/11 07:58:56;;;;;;;44.45;28.20;;;;;;;;;;5049907;28;20033;-57
2021/12/11 08:01:21;;;;;;;42.92;26.35;;;;;;;;;;5030057;28;20465;-57
2021/12/11 08:03:46;;;;;;;35.53;24.42;;;;;;;;;;5033275;28;20029;-57
2021/12/11 08:06:12;;;;;;;31.65;25.48;;;;;;;;;;5031630;28;20076;-57
2021/12/11 08:08:38;;;;;;;46.95;27.35;;;;;;;;;;5031466;28;20420;-57
2021/12/11 08:11:05;;;;;;;42.90;28.98;;;;;;;;;;5037191;28;20136;-56
2021/12/11 08:13:30;;;;;;;55.58;33.10;;;;;;;;;;5035976;28;20116;-57
2021/12/11 08:15:56;;;;;;;60.72;37.40;;;;;;;;;;5030095;28;20534;-57
2021/12/11 08:18:22;;;;;;;46.80;34.83;;;;;;;;;;5031584;28;20101;-57
2021/12/11 08:20:48;;;;;;;58.90;39.13;;;;;;;;;;5028531;28;20116;-58
2021/12/11 08:23:14;;;;;;;56.60;39.08;;;;;;;;;;5030509;28;20060;-58
2021/12/11 08:25:41;;;;;;;54.22;39.47;;;;;;;;;;5029401;28;20045;-58
2021/12/11 08:28:08;;;;;;;57.50;38.88;;;;;;;;;;5031335;28;20053;-58
2021/12/11 08:30:35;;;;;;;58.70;38.28;;;;;;;;;;5028816;28;20034;-58
2021/12/11 08:33:00;;;;;;;64.40;39.03;;;;;;;;;;5031006;28;20048;-58
2021/12/11 08:35:26;;;;;;;54.10;36.07;;;;;;;;;;5047025;28;20492;-58
2021/12/11 08:37:52;;;;;;;62.53;37.40;;;;;;;;;;5051137;28;20423;-57
2021/12/11 08:40:20;;;;;;;52.08;35.47;;;;;;;;;;5049477;28;20041;-58
2021/12/11 08:42:46;;;;;;;51.08;37.42;;;;;;;;;;5051156;28;20036;-58
2021/12/11 08:45:20;;;;;;;51.03;36.15;;;;;;;;;;5033471;28;20049;-58
2021/12/11 08:47:46;;;;;;;59.40;34.85;;;;;;;;;;5031573;28;20033;-58
2021/12/11 08:50:16;;;;;;;49.13;36.38;;;;;;;;;;5031110;28;20604;-58
2021/12/11 08:52:42;;;;;;;56.50;37.25;;;;;;;;;;5030674;28;20511;-58
2021/12/11 08:55:10;;;;;;;52.78;35.90;;;;;;;;;;5044531;28;20086;-58
2021/12/11 08:57:39;;;;;;;70.78;34.55;;;;;;;;;;5050631;28;20439;-58
2021/12/11 09:00:08;;;;;;;55.72;33.40;;;;;;;;;;5047432;28;20469;-58
2021/12/11 09:02:36;;;;;;;52.10;33.47;;;;;;;;;;5041277;28;20024;-58
2021/12/11 09:05:07;;;;;;;75.13;31.98;;;;;;;;;;5034928;28;20076;-59
2021/12/11 09:07:35;;;;;;;69.63;34.08;;;;;;;;;;5039562;28;20025;-58
2021/12/11 09:10:03;;;;;;;77.95;38.13;;;;;;;;;;5048156;28;20634;-58
2021/12/11 09:12:34;;;;;;;88.47;41.88;;;;;;;;;;5040584;28;20067;-58
2021/12/11 09:15:07;;;;;;;147.43;46.67;;;;;;;;;;5042465;28;20140;-58
2021/12/11 09:17:35;;;;;;;73.22;38.65;;;;;;;;;;5046680;28;20052;-58
2021/12/11 09:20:02;;;;;;;108.93;39.95;;;;;;;;;;5043940;28;20456;-58
2021/12/11 09:22:37;;;;;;;88.10;39.73;;;;;;;;;;5044523;28;20029;-58
2021/12/11 09:25:08;;;;;;;125.05;35.80;;;;;;;;;;5046720;28;20064;-58
2021/12/11 09:27:34;;;;;;;81.47;33.38;;;;;;;;;;5039720;28;20021;-58
2021/12/11 09:30:08;;;;;;;105.68;35.78;;;;;;;;;;5042579;28;20036;-58
2021/12/11 09:32:37;;;;;;;113.28;33.20;;;;;;;;;;5042696;28;20032;-58
2021/12/11 09:35:02;;;;;;;131.25;36.10;;;;;;;;;;5032988;28;20034;-58
2021/12/11 09:37:27;;;;;;;81.55;36.50;;;;;;;;;;5034544;28;20071;-59
2021/12/11 09:39:56;;;;;;;94.80;37.55;;;;;;;;;;5048413;28;20063;-58
2021/12/11 09:42:21;;;;;;;109.60;37.47;;;;;;;;;;5050057;28;20029;-59
2021/12/11 09:44:49;;;;;;;133.52;42.28;;;;;;;;;;5044520;28;20044;-59
2021/12/11 09:47:19;;;;;;;122.60;41.67;;;;;;;;;;5050462;28;20108;-59
2021/12/11 09:49:53;;;;;;;173.40;43.63;;;;;;;;;;5048606;28;20040;-59
2021/12/11 09:52:23;;;;;;;125.75;40.38;;;;;;;;;;5049724;28;20045;-59
2021/12/11 09:55:09;;;;;;;111.70;36.30;;;;;;;;;;5038538;28;20037;-59
2021/12/11 09:57:37;;;;;;;154.65;43.97;;;;;;;;;;5046092;28;20492;-59
2021/12/11 10:00:10;;;;;;;112.47;37.50;;;;;;;;;;5041380;28;20044;-59
2021/12/11 10:02:36;;;;;;;95.47;36.53;;;;;;;;;;5043335;28;20551;-60
2021/12/11 10:05:12;;;;;;;124.95;39.92;;;;;;;;;;5037199;28;20087;-59
2021/12/11 10:07:39;;;;;;;103.57;33.75;;;;;;;;;;5034670;28;20034;-59
2021/12/11 10:10:07;;;;;;;83.40;36.03;;;;;;;;;;5029630;28;20057;-58
2021/12/11 10:12:34;;;;;;;145.77;39.55;;;;;;;;;;5043142;28;20025;-58
2021/12/11 10:15:09;;;;;;;88.70;29.20;;;;;;;;;;5029423;28;20052;-58
2021/12/11 10:17:39;;;;;;;93.72;30.17;;;;;;;;;;5045867;28;20495;-57
2021/12/11 10:20:07;;;;;;;104.60;29.60;;;;;;;;;;5028623;28;20052;-57
2021/12/11 10:22:34;;;;;;;114.05;32.47;;;;;;;;;;5025263;28;20043;-57
2021/12/11 10:24:59;;;;;;;160.32;37.08;;;;;;;;;;5023807;28;20116;-57
2021/12/11 10:27:27;;;;;;;148.38;33.60;;;;;;;;;;5047386;28;20099;-58
2021/12/11 10:29:53;;;;;;;153.18;35.63;;;;;;;;;;5041350;28;20041;-57
2021/12/11 10:32:23;;;;;;;136.18;33.13;;;;;;;;;;5046131;28;20044;-58
2021/12/11 10:34:50;;;;;;;208.90;38.72;;;;;;;;;;5042820;28;20041;-58
2021/12/11 10:37:18;;;;;;;100.43;34.78;;;;;;;;;;5038554;28;20033;-58
2021/12/11 10:39:45;;;;;;;122.82;33.85;;;;;;;;;;5040280;28;20041;-58
2021/12/11 10:42:10;;;;;;;190.02;37.38;;;;;;;;;;5048244;28;20025;-58
2021/12/11 10:44:37;;;;;;;154.75;34.83;;;;;;;;;;5037739;28;20637;-58
2021/12/11 10:47:07;;;;;;;143.85;33.80;;;;;;;;;;5048197;28;20043;-58
2021/12/11 10:49:33;;;;;;;172.55;35.88;;;;;;;;;;5034092;28;20129;-58
2021/12/11 10:52:03;;;;;;;205.40;36.70;;;;;;;;;;5034123;28;20092;-58
2021/12/11 10:54:28;;;;;;;179.52;39.10;;;;;;;;;;5040254;28;20451;-58
2021/12/11 10:56:53;;;;;;;163.55;41.88;;;;;;;;;;5035921;28;20025;-58
2021/12/11 10:59:21;;;;;;;174.20;37.40;;;;;;;;;;5038554;28;20373;-58
2021/12/11 11:01:49;;;;;;;137.07;33.78;;;;;;;;;;5048188;28;20022;-58
2021/12/11 11:04:35;;;;;;;158.90;36.38;;;;;;;;;;5043407;28;20045;-57
2021/12/11 11:07:01;;;;;;;154.48;36.17;;;;;;;;;;5033584;28;20058;-57
2021/12/11 11:09:27;;;;;;;190.30;40.05;;;;;;;;;;5015283;28;20037;-57
2021/12/11 11:11:54;;;;;;;161.32;39.65;;;;;;;;;;5032769;28;20373;-58
2021/12/11 11:14:19;;;;;;;213.32;42.63;;;;;;;;;;5038418;28;20090;-58
2021/12/11 11:16:51;;;;;;;236.50;44.58;;;;;;;;;;5051102;28;20017;-57
2021/12/11 11:19:16;;;;;;;191.10;39.20;;;;;;;;;;5050941;28;20025;-58
2021/12/11 11:21:43;;;;;;;165.70;39.00;;;;;;;;;;5049269;28;20035;-58
2021/12/11 11:24:11;;;;;;;206.35;42.13;;;;;;;;;;5031562;28;20029;-57
2021/12/11 11:26:38;;;;;;;177.50;38.65;;;;;;;;;;5032603;28;20853;-58
2021/12/11 11:29:07;;;;;;;220.00;41.67;;;;;;;;;;5044764;28;20373;-54
2021/12/11 11:31:36;;;;;;;259.70;44.67;;;;;;;;;;5030986;28;20028;-58
2021/12/11 11:34:02;;;;;;;137.63;32.00;;;;;;;;;;5033338;28;20033;-58
2021/12/11 11:36:28;;;;;;;216.73;40.63;;;;;;;;;;5050783;28;20127;-58
2021/12/11 11:38:55;;;;;;;237.40;41.88;;;;;;;;;;5052843;28;20104;-58
2021/12/11 11:41:24;;;;;;;277.33;46.45;;;;;;;;;;5049501;28;20033;-58
2021/12/11 11:43:50;;;;;;;180.82;40.80;;;;;;;;;;5051055;28;20060;-57
2021/12/11 11:46:16;;;;;;;127.32;40.80;;;;;;;;;;5032249;28;20111;-58
2021/12/11 11:48:43;;;;;;;190.75;44.63;;;;;;;;;;5032904;28;20449;-58
2021/12/11 11:51:15;;;;;;;139.68;40.55;;;;;;;;;;5030939;28;20032;-58
2021/12/11 11:53:41;;;;;;;156.65;42.30;;;;;;;;;;5042607;28;20131;-58
2021/12/11 11:56:07;;;;;;;78.10;36.17;;;;;;;;;;5032831;28;20117;-57
2021/12/11 11:58:33;;;;;;;174.45;38.78;;;;;;;;;;5032047;28;20036;-58
2021/12/11 12:01:07;;;;;;;94.75;35.83;;;;;;;;;;5030952;28;20073;-58
2021/12/11 12:03:33;;;;;;;158.40;42.03;;;;;;;;;;5041858;28;20029;-58
2021/12/11 12:06:01;;;;;;;116.30;37.13;;;;;;;;;;5034145;28;20041;-58
2021/12/11 12:08:27;;;;;;;182.65;40.75;;;;;;;;;;5032135;28;20055;-58
2021/12/11 12:10:52;;;;;;;206.57;39.67;;;;;;;;;;5030934;28;20033;-58
2021/12/11 12:13:22;;;;;;;264.55;41.95;;;;;;;;;;5038852;28;20529;-58
2021/12/11 12:15:51;;;;;;;185.73;39.15;;;;;;;;;;5035857;28;20635;-58
2021/12/11 12:18:17;;;;;;;248.18;46.22;;;;;;;;;;5032074;28;20431;-58
2021/12/11 12:20:43;;;;;;;152.88;40.40;;;;;;;;;;5039218;28;20124;-58
2021/12/11 12:23:09;;;;;;;294.20;45.88;;;;;;;;;;5051722;28;20617;-58
2021/12/11 12:25:35;;;;;;;302.33;43.22;;;;;;;;;;5037177;28;20053;-58
2021/12/11 12:28:01;;;;;;;278.90;43.83;;;;;;;;;;5031766;28;20029;-58
2021/12/11 12:30:38;;;;;;;246.40;44.45;;;;;;;;;;5042060;28;20037;-58
2021/12/11 12:33:04;;;;;;;197.52;43.28;;;;;;;;;;5032412;28;20029;-57
2021/12/11 12:35:30;;;;;;;241.10;44.13;;;;;;;;;;5030095;28;20041;-58
2021/12/11 12:37:56;;;;;;;340.48;49.33;;;;;;;;;;5032189;28;20025;-58
2021/12/11 12:40:29;;;;;;;186.45;42.40;;;;;;;;;;5036792;28;20037;-58
2021/12/11 12:42:57;;;;;;;285.40;44.92;;;;;;;;;;5037130;28;20031;-58
2021/12/11 12:45:31;;;;;;;222.35;48.22;;;;;;;;;;5037990;28;20140;-58
2021/12/11 12:47:59;;;;;;;231.85;43.97;;;;;;;;;;5037048;28;20021;-58
2021/12/11 12:50:47;;;;;;;195.65;43.00;;;;;;;;;;5029621;28;20042;-58
2021/12/11 12:53:13;;;;;;;262.58;43.28;;;;;;;;;;5031780;28;20080;-58
2021/12/11 12:55:44;;;;;;;297.15;50.60;;;;;;;;;;5045764;28;20634;-60
2021/12/11 12:58:12;;;;;;;262.50;45.85;;;;;;;;;;5031401;28;20026;-58
2021/12/11 13:00:42;;;;;;;205.07;37.37;;;;;;;;;;5029967;28;20045;-57
2021/12/11 13:03:13;;;;;;;201.55;44.40;;;;;;;;;;5031149;28;20539;-57
2021/12/11 13:05:46;;;;;;;226.77;46.97;;;;;;;;;;5041528;28;20821;-57
2021/12/11 13:08:13;;;;;;;324.23;53.05;;;;;;;;;;5041874;28;20025;-58
2021/12/11 13:10:41;;;;;;;285.45;51.08;;;;;;;;;;5037184;28;20037;-58
2021/12/11 13:13:07;;;;;;;344.85;55.63;;;;;;;;;;5030970;28;20017;-57
2021/12/11 13:15:38;;;;;;;199.75;46.58;;;;;;;;;;5033019;28;20048;-58
2021/12/11 13:18:05;;;;;;;272.67;52.58;;;;;;;;;;5034845;28;20036;-57
2021/12/11 13:20:35;;;;;;;222.40;51.17;;;;;;;;;;5035159;28;20046;-57
2021/12/11 13:23:01;;;;;;;256.35;53.03;;;;;;;;;;5031455;28;20029;-57
2021/12/11 13:25:40;;;;;;;284.10;55.35;;;;;;;;;;5029591;28;20184;-57
2021/12/11 13:28:05;;;;;;;;;;;;;;;;;;5039895;28;20029;-57
2021/12/11 13:30:41;;;;;;;254.55;58.50;;;;;;;;;;5029707;28;19954;-57
2021/12/11 13:33:07;;;;;;;171.40;51.80;;;;;;;;;;5031366;28;20139;-58
2021/12/11 13:35:34;;;;;;;245.97;58.27;;;;;;;;;;5029165;28;20626;-58
2021/12/11 13:37:59;;;;;;;247.10;60.92;;;;;;;;;;5038692;28;20499;-57
2021/12/11 13:40:24;;;;;;;383.27;78.30;;;;;;;;;;5041693;28;20076;-57
2021/12/11 13:42:50;;;;;;;273.98;70.80;;;;;;;;;;5047130;28;20017;-58
2021/12/11 13:45:23;;;;;;;309.83;64.00;;;;;;;;;;5030486;28;20125;-58
2021/12/11 13:47:49;;;;;;;318.05;65.53;;;;;;;;;;5031674;28;20078;-57
2021/12/11 13:50:18;;;;;;;380.75;67.93;;;;;;;;;;5043020;28;20048;-58
2021/12/11 13:52:43;;;;;;;336.52;77.55;;;;;;;;;;5049237;28;20194;-57
2021/12/11 13:55:09;;;;;;;388.27;67.77;;;;;;;;;;5030816;28;20551;-57
2021/12/11 13:57:35;;;;;;;313.08;60.67;;;;;;;;;;5036493;28;20812;-57
2021/12/11 14:00:03;;;;;;;382.38;63.72;;;;;;;;;;5042807;28;20096;-57
2021/12/11 14:02:29;;;;;;;391.03;68.83;;;;;;;;;;5029919;28;20025;-57
2021/12/11 14:04:54;;;;;;;335.40;61.53;;;;;;;;;;5035436;28;20037;-57
2021/12/11 14:07:22;;;;;;;437.33;68.03;;;;;;;;;;5045406;28;20025;-58
2021/12/11 14:09:52;;;;;;;390.58;65.00;;;;;;;;;;5044664;28;20037;-57
2021/12/11 14:12:17;;;;;;;416.85;62.50;;;;;;;;;;5053253;28;20112;-57
2021/12/11 14:14:43;;;;;;;386.88;63.58;;;;;;;;;;5048848;28;20116;-57
2021/12/11 14:17:12;;;;;;;442.58;69.28;;;;;;;;;;5052397;28;20521;-57
2021/12/11 14:19:37;;;;;;;399.92;65.25;;;;;;;;;;5049279;28;20045;-57
2021/12/11 14:22:04;;;;;;;263.52;58.95;;;;;;;;;;5039763;28;20080;-57
2021/12/11 14:24:31;;;;;;;415.42;64.55;;;;;;;;;;5032996;28;20507;-58
2021/12/11 14:26:58;;;;;;;470.80;59.58;;;;;;;;;;5050046;28;20045;-57
2021/12/11 14:29:23;;;;;;;417.33;62.88;;;;;;;;;;5043747;28;20555;-57
2021/12/11 14:31:48;;;;;;;383.50;58.78;;;;;;;;;;5053618;28;20104;-57